Nearby METAR Reports

 

K1A5 - Macon/Franklin, North Carolina, USA
Distance from station: WSW 16mi, 25km
Updated: Wed, 20-Sep-2017 8:45am EDT
Mist, Overcast
Mist, Overcast
 Wind from calm
Wind: Calm
Temperature: 61°F , 16°C
Dew Point: 61°F , 16°C
Humidity: 100%
Barometer: 30.14 inHg , 1020.7 hPa
Summary: Mist
Clouds: Overcast
Visibility: 1 mile , 2 km
Cloud details: Overcast 300 ft
2017/09/20 12:45 K1A5 201245Z AUTO 00000KT 1SM BR OVC003 16/16 A3014 RMK AO2 T01600155
KAVL - Asheville, North Carolina, USA
Distance from station: ENE 36mi, 59km
Updated: Wed, 20-Sep-2017 8:54am EDT
Clear
Clear
 Wind from NNW
Wind: NNW 10 mph , 17 km/h
Temperature: 64°F , 18°C
Dew Point: 63°F , 17°C
Humidity: 94%
Barometer: 30.13 inHg , 1020.3 hPa
Clouds: Clear
Visibility: 8 miles , 13 km
2017/09/20 12:54 KAVL 201254Z 33009KT 8SM CLR 18/17 A3013 RMK AO2 SLP181 T01830167
 
KRHP - Andrews, North Carolina, USA
Distance from station: WSW 40mi, 64km
Updated: Wed, 20-Sep-2017 8:40am EDT
Clear
Clear
 Wind from calm
Wind: Calm
Temperature: 59°F , 15°C
Dew Point: 59°F , 15°C
Humidity: 100%
Barometer: 30.11 inHg , 1019.6 hPa
Clouds: Clear
Visibility: 7 miles , 11 km
2017/09/20 12:40 KRHP 201240Z AUTO 00000KT 7SM CLR 15/15 A3011 RMK AO2 T01470147
KLQK - Pickens, South Carolina, USA
Distance from station: SE 42mi, 68km
Updated: Wed, 20-Sep-2017 8:55am EDT
Clear
Clear
 Wind from calm
Wind: Calm
Temperature: 70°F , 21°C
Dew Point: 68°F , 20°C
Humidity: 94%
Barometer: 30.05 inHg , 1017.6 hPa
Clouds: Clear
Visibility: 10 miles , 16 km
2017/09/20 12:55 KLQK 201255Z AUTO 00000KT 10SM CLR 21/20 A3005 RMK AO2 T02120203
 
KCEU - Clemson, South Carolina, USA
Distance from station: SSE 46mi, 75km
Updated: Wed, 20-Sep-2017 8:54am EDT
Clear
Clear
 Wind from calm
Wind: Calm
Temperature: 73°F , 23°C
Dew Point: 72°F , 22°C
Humidity: 94%
Barometer: 30.06 inHg , 1017.9 hPa
Clouds: Clear
Visibility: 8 miles , 13 km
2017/09/20 12:54 KCEU 201254Z AUTO 00000KT 8SM CLR 23/22 A3006 RMK AO2 SLP169 T02330222
KTOC - Toccoa, Georgia, USA
Distance from station: S 49mi, 79km
Updated: Wed, 20-Sep-2017 8:55am EDT
Clear
Clear
 Wind from calm
Wind: Calm
Temperature: 75°F , 24°C
Dew Point: 68°F , 20°C
Humidity: 78%
Barometer: 30.06 inHg , 1017.9 hPa
Clouds: Clear
Visibility: 10 miles , 16 km
2017/09/20 12:55 KTOC 201255Z AUTO 00000KT 10SM CLR 24/20 A3006 RMK AO2 T02380202